Lake Clark National Park, AK

5:39 AM AKDT on October 24, 2014 (GMT -0800)
Port Alsworth | Change Station
CLOSE
Current Station
Airport
Location: Port Alsworth,
Elevation: 279 ft
Nearby Weather Stations

Elev 279 ft 60.20 °N, 154.32 °W | Updated 12 hours ago

Snow
Snow
24 °F
Feels Like 24 °F
N
3
Wind Variable Wind from NE
Gusts mph

Today
High -- | Low -- °F
--% Chance of Precip.
Yesterday
High -- | Low -- °F
Precip. -- in
9:21 AM 6:41 PM
New Moon, 0% visible
Pressure 29.82 in
Visibility 25.0 miles
Clouds Scattered Clouds 4000 ft
Overcast 8000 ft
Dew Point 24 °F
Humidity 92%
Rainfall 0.00 in
Snow Depth Not available.
UV 0 out of 12
Pollen Not available.
Air Quality Not available.
Flu Activity Sporadic
METAR PALJ 240050Z VRB04KT 25SM SCT040 OVC080 00/M05 A2982 RMK NOSPECI EST PASS OPEN

More Conditions Fewer Conditions

Pressure 29.82 in
Visibility 25.0 miles
Clouds Scattered Clouds 4000 ft
Overcast 8000 ft
Dew Point 24 °F
Humidity 92%
Rainfall 0.00 in
Snow Depth Not available.
UV 0 out of 12
Pollen Not available.
Air Quality Not available.
Flu Activity Sporadic
METAR PALJ 240050Z VRB04KT 25SM SCT040 OVC080 00/M05 A2982 RMK NOSPECI EST PASS OPEN

More Conditions Fewer Conditions

10-Day Weather Forecast

Almanac

Astronomy

Oct. 24, 2014 Rise Set
Actual Time 9:21 AM AKDT 6:41 PM AKDT
Civil Twilight 8:37 AM AKDT 7:25 PM AKDT
Nautical Twilight 7:48 AM AKDT 8:14 PM AKDT
Astronomical Twilight 6:59 AM AKDT 9:03 PM AKDT
Moon 10:23 AM AKDT 7:13 PM AKDT
Length of Visible Light 10h 47m
Length of Day
9h 19m
Tomorrow will be 5m 22s shorter.
New Moon, 0% of the Moon is Illuminated
Today
New Moon
Oct 30
First Quarter
Nov 6
Full
Nov 14
Last Quarter
Nov 22
New

Today's Extremes

State Highs State Lows

Community

WunderPhotos

Upload Photos

1,764,550 photos uploaded!

WunderBlogs® & News

Nearby

Snow Depth

Station Depth Elevation
Mcneil Canyon 1 in 1320 ft
Port Graham 0 in 300 ft
MF Bradley River 0 in 2300 ft
Cooper Lake 1 in 1200 ft
Point Mackenzie 1 in 200 ft

Earthquake Activity

City Distance Mag. Time & Date
No recent earthquake activity has been reported nearby.
Minimum magnitude displayed is 2.5.

Coastal Water Temperatures

Place Temperature
No Stations Reporting

Nearby Weather Stations